Time;durP1;ratioP1;P1;durP2;ratioP2;P2;SDS_P1;SDS_P2;PMS_P1;PMS_P2;Temp;Humidity;BMP_temperature;BMP_pressure;BME280_temperature;BME280_humidity;BME280_pressure;Samples;Min_cycle;Max_cycle;Signal;HPM_P1;HPM_P2
2022/10/01 00:00:46;;;;;;;;;;;;;;;-144.99;76.30;52423.63;5042850;28;20048;-70
2022/10/01 00:03:13;;;;;;;;;;;;;;;-144.99;76.14;52403.25;5042774;28;19939;-70
2022/10/01 00:05:39;;;;;;;;;;;;;;;-144.99;75.81;52468.47;5042054;28;19971;-70
2022/10/01 00:08:05;;;;;;;;;;;;;;;-144.99;76.03;52427.72;5041508;28;20374;-72
2022/10/01 00:10:33;;;;;;;;;;;;;;;-144.99;76.02;52391.03;5042326;28;20458;-69
2022/10/01 00:13:00;;;;;;;;;;;;;;;-144.99;75.83;52448.09;5040104;28;19939;-70
2022/10/01 00:15:26;;;;;;;;;;;;;;;-144.99;75.95;52456.25;5037521;28;20266;-71
2022/10/01 00:17:52;;;;;;;;;;;;;;;-144.99;75.72;52448.09;5041588;28;19939;-69
2022/10/01 00:20:21;;;;;;;;;;;;;;;-144.99;75.47;52452.16;5040793;28;21456;-71
2022/10/01 00:22:47;;;;;;;;;;;;;;;-144.99;75.47;52439.94;5040987;28;19944;-70
2022/10/01 00:25:13;;;;;;;;;;;;;;;-144.99;75.13;52437.91;5038526;28;19956;-68
2022/10/01 00:27:44;;;;;;;;;;;;;;;-144.99;75.49;52435.88;5042699;28;19941;-71
2022/10/01 00:30:11;;;;;;;;;;;;;;;-144.99;75.62;52444.03;5037275;28;20479;-69
2022/10/01 00:32:39;;;;;;;;;;;;;;;-144.99;75.72;52464.41;5039449;28;20000;-70
2022/10/01 00:35:08;;;;;;;;;;;;;;;-144.99;75.90;52460.31;5044441;28;20398;-71
2022/10/01 00:37:36;;;;;;;;;;;;;;;-144.99;75.85;52456.25;5041124;28;19967;-70
2022/10/01 00:40:03;;;;;;;;;;;;;;;-144.99;76.33;52435.88;5044273;28;20166;-70
2022/10/01 00:42:29;;;;;;;;;;;;;;;-144.99;76.68;52472.56;5052370;28;19950;-70
2022/10/01 00:45:01;;;;;;;;;;;;;;;-144.99;76.20;52472.56;5060950;28;19944;-71
2022/10/01 00:47:31;;;;;;;;;;;;;;;-144.99;76.18;52439.94;5041378;28;20028;-72
2022/10/01 00:50:01;;;;;;;;;;;;;;;-144.99;77.21;52413.44;5043171;28;20269;-73
2022/10/01 00:52:30;;;;;;;;;;;;;;;-144.99;76.77;52435.88;5046947;28;19990;-72
2022/10/01 00:54:58;;;;;;;;;;;;;;;-144.99;76.93;52456.25;5040284;28;19932;-73
2022/10/01 00:57:26;;;;;;;;;;;;;;;-144.99;77.37;52439.94;5046291;28;20382;-73
2022/10/01 00:59:55;;;;;;;;;;;;;;;-144.99;77.60;52437.91;5042828;28;19925;-72
2022/10/01 01:02:22;;;;;;;;;;;;;;;-144.99;78.15;52468.47;5041859;28;19937;-72
2022/10/01 01:04:49;;;;;;;;;;;;;;;-144.99;77.60;52454.22;5044935;28;19940;-73
2022/10/01 01:07:15;;;;;;;;;;;;;;;-144.99;77.53;52419.56;5050830;28;20434;-72
2022/10/01 01:09:43;;;;;;;;;;;;;;;-144.99;77.48;52431.78;5040023;28;19941;-72
2022/10/01 01:12:13;;;;;;;;;;;;;;;-144.99;77.90;52439.94;5042281;28;19932;-71
2022/10/01 01:14:46;;;;;;;;;;;;;;;-144.99;77.39;52409.38;5041337;28;19947;-72
2022/10/01 01:17:14;;;;;;;;;;;;;;;-144.99;77.02;52462.34;5037639;28;19925;-73
2022/10/01 01:19:51;;;;;;;;;;;;;;;-144.99;76.97;52423.63;5040379;28;19932;-72
2022/10/01 01:22:20;;;;;;;;;;;;;;;-144.99;77.43;52399.19;5040165;28;19933;-73
2022/10/01 01:24:54;;;;;;;;;;;;;;;-144.99;76.96;52413.44;5042220;28;20035;-72
2022/10/01 01:27:37;;;;;;;;;;;;;;;-144.99;76.98;52439.94;5044303;28;19933;-73
2022/10/01 01:30:08;;;;;;;;;;;;;;;-144.99;76.71;52480.72;5052920;28;19925;-71
2022/10/01 01:32:39;;;;;;;;;;;;;;;-144.99;76.64;52456.25;5050420;28;19929;-72
2022/10/01 01:35:08;;;;;;;;;;;;;;;-144.99;76.85;52448.09;5053491;28;20401;-72
2022/10/01 01:37:37;;;;;;;;;;;;;;;-144.99;76.76;52419.56;5053436;28;19932;-71
2022/10/01 01:40:09;;;;;;;;;;;;;;;-144.99;76.82;52437.91;5065510;28;19955;-70
2022/10/01 01:42:36;;;;;;;;;;;;;;;-144.99;77.29;52468.47;5055574;28;20202;-71
2022/10/01 01:45:04;;;;;;;;;;;;;;;-144.99;77.25;52460.31;5047311;28;19932;-72
2022/10/01 01:47:33;;;;;;;;;;;;;;;-144.99;77.09;52464.41;5046383;28;19928;-71
2022/10/01 01:50:01;;;;;;;;;;;;;;;-144.99;76.64;52448.09;5046657;28;19937;-71
2022/10/01 01:52:28;;;;;;;;;;;;;;;-144.99;76.94;52446.06;5048413;28;19943;-70
2022/10/01 01:54:56;;;;;;;;;;;;;;;-144.99;76.79;52425.66;5052377;28;20325;-72
2022/10/01 01:57:22;;;;;;;;;;;;;;;-144.99;77.03;52435.88;5049643;28;20407;-71
2022/10/01 01:59:48;;;;;;;;;;;;;;;-144.99;76.88;52433.81;5046026;28;19943;-70
2022/10/01 02:02:16;;;;;;;;;;;;;;;-144.99;76.93;52419.56;5045381;28;19940;-71
2022/10/01 02:04:45;;;;;;;;;;;;;;;-144.99;77.08;52444.03;5045199;28;20376;-72
2022/10/01 02:07:23;;;;;;;;;;;;;;;-144.99;76.89;52448.09;5044867;28;19931;-71
2022/10/01 02:09:52;;;;;;;;;;;;;;;-144.99;77.03;52460.31;5044908;28;19929;-73
2022/10/01 02:12:23;;;;;;;;;;;;;;;-144.99;76.91;52452.16;5043175;28;20178;-72
2022/10/01 02:14:53;;;;;;;;;;;;;;;-144.99;77.14;52468.47;5044393;28;19925;-73
2022/10/01 02:17:28;;;;;;;;;;;;;;;-144.99;77.63;52468.47;5042622;28;19933;-71
2022/10/01 02:19:57;;;;;;;;;;;;;;;-144.99;77.48;52419.56;5045667;28;20803;-72
2022/10/01 02:22:27;;;;;;;;;;;;;;;-144.99;77.71;52452.16;5042880;28;19924;-73
2022/10/01 02:24:56;;;;;;;;;;;;;;;-144.99;77.06;52413.44;5045718;28;19925;-73
2022/10/01 02:27:25;;;;;;;;;;;;;;;-144.99;77.75;52448.09;5042440;28;20556;-72
2022/10/01 02:29:53;;;;;;;;;;;;;;;-144.99;77.86;52441.97;5044979;28;19925;-73
2022/10/01 02:32:20;;;;;;;;;;;;;;;-144.99;77.91;52439.94;5044602;28;20009;-72
2022/10/01 02:34:49;;;;;;;;;;;;;;;-144.99;77.55;52454.22;5042116;28;19928;-72
2022/10/01 02:37:19;;;;;;;;;;;;;;;-144.99;76.98;52439.94;5062299;28;19935;-73
2022/10/01 02:39:48;;;;;;;;;;;;;;;-144.99;76.71;52431.78;5070170;28;19913;-74
2022/10/01 02:42:16;;;;;;;;;;;;;;;-144.99;76.79;52415.47;5052127;28;20543;-72
2022/10/01 02:44:43;;;;;;;;;;;;;;;-144.99;76.35;52444.03;5043611;28;20045;-73
2022/10/01 02:47:13;;;;;;;;;;;;;;;-144.99;76.15;52384.91;5046425;28;20034;-74
2022/10/01 02:49:40;;;;;;;;;;;;;;;-144.99;76.45;52468.47;5043136;28;19952;-73
2022/10/01 02:52:08;;;;;;;;;;;;;;;-144.99;75.40;52433.81;5045344;28;19931;-74
2022/10/01 02:54:39;;;;;;;;;;;;;;;-144.99;75.43;52397.13;5046612;28;19960;-73
2022/10/01 02:57:26;;;;;;;;;;;;;;;-144.99;75.04;52415.47;5045039;28;19933;-73
2022/10/01 02:59:53;;;;;;;;;;;;;;;-144.99;74.77;52439.94;5041736;28;19932;-73
2022/10/01 03:02:21;;;;;;;;;;;;;;;-144.99;74.30;52395.09;5045143;28;19955;-74
2022/10/01 03:04:47;;;;;;;;;;;;;;;-144.99;73.97;52444.03;5044211;28;20002;-74
2022/10/01 03:07:14;;;;;;;;;;;;;;;-144.99;73.88;52407.31;5043291;28;20346;-73
2022/10/01 03:09:42;;;;;;;;;;;;;;;-144.99;74.19;52431.78;5041525;28;20020;-72
2022/10/01 03:12:09;;;;;;;;;;;;;;;-144.99;73.72;52458.28;5041664;28;19932;-70
2022/10/01 03:14:35;;;;;;;;;;;;;;;-144.99;73.82;52439.94;5040787;28;19925;-72
2022/10/01 03:17:02;;;;;;;;;;;;;;;-144.99;73.04;52448.09;5048833;28;20043;-72
2022/10/01 03:19:28;;;;;;;;;;;;;;;-144.99;72.76;52437.91;5041545;28;20323;-74
2022/10/01 03:21:55;;;;;;;;;;;;;;;-144.99;72.77;52444.03;5043587;28;19931;-73
2022/10/01 03:24:21;;;;;;;;;;;;;;;-144.99;72.95;52435.88;5044053;28;20400;-72
2022/10/01 03:26:49;;;;;;;;;;;;;;;-144.99;72.54;52395.09;5042867;28;19929;-74
2022/10/01 03:29:16;;;;;;;;;;;;;;;-144.99;72.83;52401.22;5042689;28;19924;-72
2022/10/01 03:31:42;;;;;;;;;;;;;;;-144.99;74.03;52448.09;5050616;28;19924;-74
2022/10/01 03:34:09;;;;;;;;;;;;;;;-144.99;75.57;52427.72;5059194;28;20031;-74
2022/10/01 03:36:35;;;;;;;;;;;;;;;-144.99;77.11;52431.78;5068915;28;19913;-75
2022/10/01 03:39:01;;;;;;;;;;;;;;;-144.99;81.21;52450.13;5060845;28;19929;-73
2022/10/01 03:41:28;;;;;;;;;;;;;;;-144.99;85.11;52431.78;5046629;28;19936;-73
2022/10/01 03:43:55;;;;;;;;;;;;;;;-144.99;87.41;52427.72;5043835;28;19947;-72
2022/10/01 03:46:22;;;;;;;;;;;;;;;-144.99;88.30;52427.72;5042347;28;19925;-73
2022/10/01 03:48:49;;;;;;;;;;;;;;;-144.99;92.02;52448.09;5042779;28;20316;-73
2022/10/01 03:51:16;;;;;;;;;;;;;;;-144.99;93.60;52427.72;5043286;28;20352;-72
2022/10/01 03:53:42;;;;;;;;;;;;;;;-144.99;96.26;52444.03;5039218;28;19947;-73
2022/10/01 03:56:09;;;;;;;;;;;;;;;-144.99;97.91;52482.75;5039986;28;19925;-71
2022/10/01 03:58:35;;;;;;;;;;;;;;;-144.99;100.00;52429.75;5044205;28;20257;-73
2022/10/01 04:01:03;;;;;;;;;;;;;;;-144.99;100.00;52423.63;5045957;28;19924;-72
2022/10/01 04:03:29;;;;;;;;;;;;;;;-144.99;100.00;52433.81;5042975;28;19932;-71
2022/10/01 04:05:56;;;;;;;;;;;;;;;-144.99;100.00;52460.31;5041122;28;19978;-71
2022/10/01 04:08:22;;;;;;;;;;;;;;;-144.99;100.00;52444.03;5039098;28;20376;-71
2022/10/01 04:10:49;;;;;;;;;;;;;;;-144.99;100.00;52452.16;5040459;28;19936;-71
2022/10/01 04:13:16;;;;;;;;;;;;;;;-144.99;100.00;52448.09;5041970;28;19928;-71
2022/10/01 04:15:42;;;;;;;;;;;;;;;-144.99;100.00;52446.06;5042349;28;20394;-71
2022/10/01 04:18:10;;;;;;;;;;;;;;;-144.99;100.00;52444.03;5044543;28;19928;-71
2022/10/01 04:20:37;;;;;;;;;;;;;;;-144.99;100.00;52466.44;5044740;28;19926;-70
2022/10/01 04:23:04;;;;;;;;;;;;;;;-144.99;100.00;52431.78;5042374;28;19936;-70
2022/10/01 04:25:31;;;;;;;;;;;;;;;-144.99;100.00;52452.16;5039887;28;19929;-70
2022/10/01 04:27:58;;;;;;;;;;;;;;;-144.99;100.00;52456.25;5043982;28;20376;-72
2022/10/01 04:30:25;;;;;;;;;;;;;;;-144.99;100.00;52407.31;5044620;28;19932;-72
2022/10/01 04:32:52;;;;;;;;;;;;;;;-144.99;100.00;52448.09;5059580;28;19928;-72
2022/10/01 04:35:20;;;;;;;;;;;;;;;-144.99;100.00;52437.91;5062400;28;19937;-72
2022/10/01 04:37:46;;;;;;;;;;;;;;;-144.99;100.00;52448.09;5047606;28;19933;-71
2022/10/01 04:40:13;;;;;;;;;;;;;;;-144.99;100.00;52415.47;5042678;28;19928;-72
2022/10/01 04:42:40;;;;;;;;;;;;;;;-144.99;100.00;52431.78;5042697;28;20388;-72
2022/10/01 04:45:08;;;;;;;;;;;;;;;-144.99;100.00;52452.16;5048751;28;19928;-72
2022/10/01 04:47:34;;;;;;;;;;;;;;;-144.99;100.00;52480.72;5043575;28;19939;-70
2022/10/01 04:50:00;;;;;;;;;;;;;;;-144.99;100.00;52444.03;5045104;28;19925;-71
2022/10/01 04:52:28;;;;;;;;;;;;;;;-144.99;100.00;52415.47;5044844;28;19940;-71
2022/10/01 04:54:54;;;;;;;;;;;;;;;-144.99;100.00;52460.31;5044414;28;19925;-71
2022/10/01 04:57:21;;;;;;;;;;;;;;;-144.99;100.00;52437.91;5048983;28;19941;-73
2022/10/01 04:59:47;;;;;;;;;;;;;;;-144.99;100.00;52460.31;5046238;28;19932;-73
2022/10/01 05:02:15;;;;;;;;;;;;;;;-144.99;100.00;52378.78;5045532;28;19925;-72
2022/10/01 05:04:41;;;;;;;;;;;;;;;-144.99;100.00;52456.25;5041163;28;20037;-72
2022/10/01 05:07:07;;;;;;;;;;;;;;;-144.99;100.00;52456.25;5044142;28;19931;-72
2022/10/01 05:09:35;;;;;;;;;;;;;;;-144.99;100.00;52399.19;5044064;28;19955;-72
2022/10/01 05:12:02;;;;;;;;;;;;;;;-144.99;100.00;52415.47;5046238;28;19925;-72
2022/10/01 05:14:28;;;;;;;;;;;;;;;-144.99;100.00;52450.13;5044211;28;20002;-72
2022/10/01 05:16:54;;;;;;;;;;;;;;;-144.99;100.00;52431.78;5042489;28;20323;-72
2022/10/01 05:19:21;;;;;;;;;;;;;;;-144.99;100.00;52452.16;5044933;28;20543;-71
2022/10/01 05:21:47;;;;;;;;;;;;;;;-144.99;100.00;52427.72;5041758;28;19978;-72
2022/10/01 05:24:16;;;;;;;;;;;;;;;-144.99;100.00;52452.16;5043176;28;19932;-73
2022/10/01 05:26:43;;;;;;;;;;;;;;;-144.99;100.00;52452.16;5042180;28;19925;-74
2022/10/01 05:29:10;;;;;;;;;;;;;;;-144.99;100.00;52419.56;5057837;28;19929;-71
2022/10/01 05:31:36;;;;;;;;;;;;;;;-144.99;100.00;52497.00;5080225;22;20425;-79
2022/10/01 05:34:03;;;;;;;;;;;;;;;-144.99;100.00;52444.03;5042219;28;20385;-78
2022/10/01 05:36:29;;;;;;;;;;;;;;;-144.99;100.00;52448.09;5044063;28;20388;-78
2022/10/01 05:38:55;;;;;;;;;;;;;;;-144.99;100.00;52431.78;5044547;28;19928;-75
2022/10/01 05:41:21;;;;;;;;;;;;;;;-144.99;100.00;52435.88;5039569;28;19932;-76
2022/10/01 05:43:50;;;;;;;;;;;;;;;-144.99;100.00;52444.03;5041630;28;20003;-78
2022/10/01 05:46:16;;;;;;;;;;;;;;;-144.99;100.00;52435.88;5046059;28;19932;-76
2022/10/01 05:48:43;;;;;;;;;;;;;;;-144.99;100.00;52484.78;5060566;28;19925;-75
2022/10/01 05:51:09;;;;;;;;;;;;;;;-144.99;100.00;52460.31;5051830;28;20005;-75
2022/10/01 05:53:37;;;;;;;;;;;;;;;-144.99;100.00;52421.59;5060813;28;19923;-78
2022/10/01 05:56:03;;;;;;;;;;;;;;;-144.99;100.00;52407.31;5063188;28;19939;-78
2022/10/01 05:58:30;;;;;;;;;;;;;;;-144.99;100.00;52435.88;5064822;28;19913;-79
2022/10/01 06:00:57;;;;;;;;;;;;;;;-144.99;100.00;52429.75;5062988;28;19951;-79
2022/10/01 06:03:24;;;;;;;;;;;;;;;-144.99;100.00;52429.75;5065395;28;19955;-78
2022/10/01 06:05:52;;;;;;;;;;;;;;;-144.99;100.00;52405.28;5062745;28;19935;-79
2022/10/01 06:08:18;;;;;;;;;;;;;;;-144.99;100.00;52417.53;5062457;28;19925;-80
2022/10/01 06:10:47;;;;;;;;;;;;;;;-144.99;100.00;52403.25;5063884;28;19999;-76
2022/10/01 06:13:16;;;;;;;;;;;;;;;-144.99;100.00;52464.41;5066250;28;19913;-80
2022/10/01 06:15:43;;;;;;;;;;;;;;;-144.99;100.00;52427.72;5063083;28;19925;-79
2022/10/01 06:18:11;;;;;;;;;;;;;;;-144.99;100.00;52403.25;5064231;28;20206;-82
2022/10/01 06:20:38;;;;;;;;;;;;;;;-144.99;100.00;52431.78;5068828;28;19925;-79
2022/10/01 06:23:06;;;;;;;;;;;;;;;-144.99;100.00;52403.25;5067240;28;19984;-79
2022/10/01 06:25:33;;;;;;;;;;;;;;;-144.99;100.00;52439.94;5064835;28;19932;-78
2022/10/01 06:28:00;;;;;;;;;;;;;;;-144.99;100.00;52423.63;5064278;28;19984;-79
2022/10/01 06:30:28;;;;;;;;;;;;;;;-144.99;100.00;52374.72;5066371;28;19935;-78
2022/10/01 06:32:58;;;;;;;;;;;;;;;-144.99;100.00;52460.31;5064118;28;19931;-78
2022/10/01 06:35:26;;;;;;;;;;;;;;;-144.99;100.00;52441.97;5064639;28;19913;-79
2022/10/01 06:37:52;;;;;;;;;;;;;;;-144.99;100.00;52456.25;5059880;28;19929;-77
2022/10/01 06:40:19;;;;;;;;;;;;;;;-144.99;100.00;52391.03;5067067;28;19957;-79
2022/10/01 06:42:47;;;;;;;;;;;;;;;-144.99;100.00;52456.25;5061902;28;19931;-78
2022/10/01 06:45:13;;;;;;;;;;;;;;;-144.99;100.00;52403.25;5062608;28;19919;-77
2022/10/01 06:47:40;;;;;;;;;;;;;;;-144.99;100.00;52439.94;5065841;28;19929;-78
2022/10/01 06:50:06;;;;;;;;;;;;;;;-144.99;100.00;52415.47;5065902;28;19937;-79
2022/10/01 06:52:49;;;;;;;;;;;;;;;-144.99;100.00;52433.81;5056162;28;19937;-74
2022/10/01 06:55:15;;;;;;;;;;;;;;;-144.99;100.00;52415.47;5053740;28;19935;-77
2022/10/01 06:57:42;;;;;;;;;;;;;;;-144.99;100.00;52431.78;5054330;28;19925;-78
2022/10/01 07:00:08;;;;;;;;;;;;;;;-144.99;100.00;52419.56;5047718;28;20292;-77
2022/10/01 07:02:35;;;;;;;;;;;;;;;-144.99;100.00;52415.47;5049804;28;19935;-77
2022/10/01 07:05:01;;;;;;;;;;;;;;;-144.99;100.00;52382.88;5047255;28;19929;-76
2022/10/01 07:07:28;;;;;;;;;;;;;;;-144.99;100.00;52435.88;5041431;28;19940;-76
2022/10/01 07:09:56;;;;;;;;;;;;;;;-144.99;100.00;52429.75;5045340;28;20034;-78
2022/10/01 07:12:23;;;;;;;;;;;;;;;-144.99;100.00;52429.75;5044027;28;19932;-77
2022/10/01 07:14:49;;;;;;;;;;;;;;;-144.99;100.00;52423.63;5047665;28;19925;-77
2022/10/01 07:17:15;;;;;;;;;;;;;;;-144.99;100.00;52464.41;5046775;28;19932;-77
2022/10/01 07:19:41;;;;;;;;;;;;;;;-144.99;100.00;52431.78;5046145;28;19979;-77
2022/10/01 07:22:08;;;;;;;;;;;;;;;-144.99;100.00;52425.66;5046572;28;19936;-76
2022/10/01 07:24:34;;;;;;;;;;;;;;;-144.99;100.00;52450.13;5045734;28;19933;-78
2022/10/01 07:27:02;;;;;;;;;;;;;;;-144.99;100.00;52456.25;5048324;28;19931;-80
2022/10/01 07:29:29;;;;;;;;;;;;;;;-144.99;100.00;52423.63;5046430;28;20421;-77
2022/10/01 07:31:56;;;;;;;;;;;;;;;-144.99;100.00;52419.56;5046107;28;19967;-77
2022/10/01 07:34:23;;;;;;;;;;;;;;;-144.99;100.00;52429.75;5046008;28;20384;-77
2022/10/01 07:36:50;;;;;;;;;;;;;;;-144.99;100.00;52411.41;5048797;28;19925;-76
2022/10/01 07:39:16;;;;;;;;;;;;;;;-144.99;100.00;52460.31;5048097;28;19940;-77
2022/10/01 07:41:43;;;;;;;;;;;;;;;-144.99;100.00;52419.56;5045333;28;19925;-75
2022/10/01 07:44:11;;;;;;;;;;;;;;;-144.99;100.00;52419.56;5039314;28;20145;-78
2022/10/01 07:46:38;;;;;;;;;;;;;;;-144.99;100.00;52411.41;5046255;28;19932;-75
2022/10/01 07:49:04;;;;;;;;;;;;;;;-144.99;100.00;52419.56;5043266;28;19935;-78
2022/10/01 07:51:30;;;;;;;;;;;;;;;-144.99;100.00;52439.94;5046333;28;19935;-77
2022/10/01 07:53:57;;;;;;;;;;;;;;;-144.99;100.00;52427.72;5048481;28;19925;-78
2022/10/01 07:56:25;;;;;;;;;;;;;;;-144.99;100.00;52407.31;5047786;28;20004;-78
2022/10/01 07:58:54;;;;;;;;;;;;;;;-144.99;100.00;52403.25;5047821;28;19979;-77
2022/10/01 08:01:22;;;;;;;;;;;;;;;-144.99;100.00;52427.72;5047370;28;20375;-77
2022/10/01 08:03:48;;;;;;;;;;;;;;;-144.99;100.00;52415.47;5045545;28;19932;-76
2022/10/01 08:06:15;;;;;;;;;;;;;;;-144.99;100.00;52403.25;5051142;28;19940;-77
2022/10/01 08:08:41;;;;;;;;;;;;;;;-144.99;100.00;52382.88;5050452;28;19963;-78
2022/10/01 08:11:09;;;;;;;;;;;;;;;-144.99;100.00;52391.03;5051125;28;19925;-77
2022/10/01 08:13:35;;;;;;;;;;;;;;;-144.99;100.00;52427.72;5050731;28;19931;-75
2022/10/01 08:16:02;;;;;;;;;;;;;;;-144.99;100.00;52411.41;5043062;28;19932;-76
2022/10/01 08:18:30;;;;;;;;;;;;;;;-144.99;100.00;52441.97;5048316;28;19931;-76
2022/10/01 08:20:56;;;;;;;;;;;;;;;-144.99;100.00;52411.41;5050108;28;19925;-75
2022/10/01 08:23:23;;;;;;;;;;;;;;;-144.99;100.00;52388.97;5049454;28;19925;-78
2022/10/01 08:25:49;;;;;;;;;;;;;;;-144.99;100.00;52427.72;5041939;28;19973;-76
2022/10/01 08:28:16;;;;;;;;;;;;;;;-144.99;100.00;52415.47;5046109;28;19925;-79
2022/10/01 08:30:42;;;;;;;;;;;;;;;-144.99;100.00;52376.75;5050707;28;19950;-77
2022/10/01 08:33:10;;;;;;;;;;;;;;;-144.99;100.00;52427.72;5042023;28;20209;-78
2022/10/01 08:35:39;;;;;;;;;;;;;;;-144.99;100.00;52423.63;5043715;28;20400;-77
2022/10/01 08:38:06;;;;;;;;;;;;;;;-144.99;100.00;52403.25;5041639;28;20363;-78
2022/10/01 08:40:35;;;;;;;;;;;;;;;-144.99;100.00;52452.16;5046821;28;19924;-78
2022/10/01 08:43:05;;;;;;;;;;;;;;;-144.99;100.00;52366.56;5047438;28;20402;-78
2022/10/01 08:45:35;;;;;;;;;;;;;;;-144.99;100.00;52423.63;5033239;28;20070;-75
2022/10/01 08:48:05;;;;;;;;;;;;;;;-144.99;100.00;52399.19;5037840;28;19976;-78
2022/10/01 08:50:36;;;;;;;;;;;;;;;-144.99;100.00;52395.09;5044300;28;19937;-78
2022/10/01 08:53:05;;;;;;;;;;;;;;;-144.99;100.00;52411.41;5047930;28;20308;-77
2022/10/01 08:55:35;;;;;;;;;;;;;;;-144.99;100.00;52384.91;5047454;28;19932;-77
2022/10/01 08:58:03;;;;;;;;;;;;;;;-144.99;100.00;52427.72;5044669;28;20289;-77
2022/10/01 09:00:30;;;;;;;;;;;;;;;-144.99;100.00;52415.47;5041866;28;19932;-76
2022/10/01 09:02:58;;;;;;;;;;;;;;;-144.99;100.00;52403.25;5044233;28;19978;-73
2022/10/01 09:05:27;;;;;;;;;;;;;;;-144.99;100.00;52403.25;5042828;28;20310;-78
2022/10/01 09:08:00;;;;;;;;;;;;;;;-144.99;100.00;52415.47;5044120;28;19925;-77
2022/10/01 09:10:34;;;;;;;;;;;;;;;-144.99;100.00;52391.03;5051239;28;19925;-78
2022/10/01 09:13:15;;;;;;;;;;;;;;;-144.99;100.00;52374.72;5053238;28;19925;-78
2022/10/01 09:15:47;;;;;;;;;;;;;;;-144.99;100.00;52409.38;5034867;28;19935;-75
2022/10/01 09:18:18;;;;;;;;;;;;;;;-144.99;100.00;52407.31;5044849;28;19928;-77
2022/10/01 09:20:47;;;;;;;;;;;;;;;-144.99;100.00;52378.78;5030910;28;19944;-79
2022/10/01 09:23:18;;;;;;;;;;;;;;;-144.99;100.00;52403.25;5030318;28;19991;-78
2022/10/01 09:25:50;;;;;;;;;;;;;;;-144.99;100.00;52407.31;5036057;28;19932;-79
2022/10/01 09:28:18;;;;;;;;;;;;;;;-144.99;100.00;52378.78;5043492;28;20668;-75
2022/10/01 09:30:49;;;;;;;;;;;;;;;-144.99;100.00;52399.19;5031995;28;19933;-76
2022/10/01 09:33:17;;;;;;;;;;;;;;;-144.99;100.00;52386.94;5027927;28;20440;-75
2022/10/01 09:35:44;;;;;;;;;;;;;;;-144.99;100.00;52378.78;5026283;28;19933;-76
2022/10/01 09:38:15;;;;;;;;;;;;;;;-144.99;100.00;52374.72;5026323;28;19933;-77
2022/10/01 09:40:46;;;;;;;;;;;;;;;-144.99;100.00;52427.72;5027815;28;19940;-77
2022/10/01 09:43:17;;;;;;;;;;;;;;;-144.99;100.00;52391.03;5034123;28;19933;-78
2022/10/01 09:45:43;;;;;;;;;;;;;;;-144.99;100.00;52374.72;5024812;28;19944;-75
2022/10/01 09:48:17;;;;;;;;;;;;;;;-144.99;100.00;52391.03;5025509;28;20307;-74
2022/10/01 09:50:49;;;;;;;;;;;;;;;-144.99;100.00;52435.88;5032578;28;19944;-78
2022/10/01 09:53:18;;;;;;;;;;;;;;;-144.99;100.00;52352.28;5026186;28;20617;-74
2022/10/01 09:55:45;;;;;;;;;;;;;;;-144.99;100.00;52378.78;5032338;28;19925;-75
2022/10/01 09:58:14;;;;;;;;;;;;;;;-144.99;100.00;52362.50;5028325;28;19944;-76
2022/10/01 10:00:43;;;;;;;;;;;;;;;-144.99;100.00;52374.72;5025400;28;21786;-74
2022/10/01 10:03:09;;;;;;;;;;;;;;;-144.99;100.00;52374.72;5026550;28;20163;-76
2022/10/01 10:05:46;;;;;;;;;;;;;;;-144.99;100.00;52360.44;5034593;28;19939;-75
2022/10/01 10:08:14;;;;;;;;;;;;;;;-144.99;100.00;52380.84;5026990;28;19931;-77
2022/10/01 10:10:49;;;;;;;;;;;;;;;-144.99;100.00;52362.50;5029302;28;19939;-74
2022/10/01 10:13:18;;;;;;;;;;;;;;;-144.99;100.00;52411.41;5028677;28;20368;-76
2022/10/01 10:15:51;;;;;;;;;;;;;;;-144.99;100.00;52366.56;5035962;28;19924;-76
2022/10/01 10:18:24;;;;;;;;;;;;;;;-144.99;100.00;52358.41;5045587;28;20092;-77
2022/10/01 10:20:51;;;;;;;;;;;;;;;-144.99;100.00;52297.25;5041132;28;19925;-75
2022/10/01 10:23:19;;;;;;;;;;;;;;;-144.99;100.00;52338.03;5030140;28;21291;-74
2022/10/01 10:25:54;;;;;;;;;;;;;;;-144.99;100.00;52301.34;5034042;28;21287;-75
2022/10/01 10:28:22;;;;;;;;;;;;;;;-144.99;100.00;52227.97;5030894;28;19932;-78
2022/10/01 10:30:50;;;;;;;;;;;;;;;-144.99;100.00;52211.66;5037664;28;19929;-76
2022/10/01 10:33:19;;;;;;;;;;;;;;;-144.99;100.00;52260.56;5041117;28;19924;-78
2022/10/01 10:35:46;;;;;;;;;;;;;;;-144.99;100.00;52305.41;5042401;28;20023;-74
2022/10/01 10:38:17;;;;;;;;;;;;;;;-144.99;100.00;52305.41;5042653;28;19948;-78
2022/10/01 10:40:45;;;;;;;;;;;;;;;-144.99;100.00;52293.19;5036431;28;19940;-76
2022/10/01 10:43:19;;;;;;;;;;;;;;;-144.99;100.00;52174.97;5030519;28;20204;-75
2022/10/01 10:45:46;;;;;;;;;;;;;;;-144.99;98.63;52305.41;5032044;28;19933;-75
2022/10/01 10:48:17;;;;;;;;;;;;;;;-144.99;96.71;52301.34;5031510;28;19933;-78
2022/10/01 10:50:44;;;;;;;;;;;;;;;-144.99;98.93;52329.88;5034562;28;19925;-77
2022/10/01 10:53:12;;;;;;;;;;;;;;;-144.99;98.57;52252.44;5031196;28;19933;-76
2022/10/01 10:55:38;;;;;;;;;;;;;;;-144.99;96.43;52252.44;5034494;28;19937;-78
2022/10/01 10:58:11;;;;;;;;;;;;;;;-144.99;93.53;52270.78;5035644;28;20426;-76
2022/10/01 11:00:45;;;;;;;;;;;;;;;-144.99;92.80;52248.34;5035217;28;19932;-79
2022/10/01 11:03:14;;;;;;;;;;;;;;;-144.99;88.65;52276.88;5032331;28;20679;-78
2022/10/01 11:05:42;;;;;;;;;;;;;;;-144.99;89.40;52272.81;5038068;28;19948;-77
2022/10/01 11:08:11;;;;;;;;;;;;;;;-144.99;88.00;52287.06;5053575;28;19928;-80
2022/10/01 11:10:43;;;;;;;;;;;;;;;-144.99;91.51;52285.03;5059408;28;19925;-80
2022/10/01 11:13:23;;;;;;;;;;;;;;;-144.99;95.06;52280.97;5059296;28;19932;-80
2022/10/01 11:15:57;;;;;;;;;;;;;;;-144.99;96.18;52370.63;5055216;28;19936;-81
2022/10/01 11:18:29;;;;;;;;;;;;;;;-144.99;97.38;52166.81;5054299;28;19924;-79
2022/10/01 11:21:07;;;;;;;;;;;;;;;-144.99;93.33;52293.19;5055010;28;19925;-81
2022/10/01 11:23:48;;;;;;;;;;;;;;;-144.99;93.65;52136.25;5055287;28;19931;-79
2022/10/01 11:26:19;;;;;;;;;;;;;;;-144.99;83.15;52244.28;5042792;28;20414;-80
2022/10/01 11:28:50;;;;;;;;;;;;;;;-144.99;80.59;52089.38;5054797;28;19931;-80
2022/10/01 11:31:24;;;;;;;;;;;;;;;-144.99;74.43;52244.28;5055566;28;20015;-80
2022/10/01 11:33:58;;;;;;;;;;;;;;;-144.99;76.47;52309.50;5055081;28;19931;-80
2022/10/01 11:36:29;;;;;;;;;;;;;;;-144.99;80.77;52236.13;5055136;28;19925;-80
2022/10/01 11:38:58;;;;;;;;;;;;;;;-144.99;81.61;52301.34;5088798;22;19935;-74
2022/10/01 11:41:28;;;;;;;;;;;;;;;-144.99;84.56;52293.19;5059044;28;19929;-76
2022/10/01 11:43:56;;;;;;;;;;;;;;;-144.99;85.58;52093.44;5060018;28;19924;-75
2022/10/01 11:46:32;;;;;;;;;;;;;;;-144.99;77.96;52238.16;5074619;28;19929;-76
2022/10/01 11:49:02;;;;;;;;;;;;;;;-144.99;76.80;52280.97;5074491;28;20303;-76
2022/10/01 11:51:35;;;;;;;;;;;;;;;-144.99;79.44;52126.06;5073703;28;19928;-75
2022/10/01 11:54:06;;;;;;;;;;;;;;;-144.99;78.86;52195.34;5073395;28;19924;-75
2022/10/01 11:59:22;;;;;;;;;;;;;;;-144.99;75.34;52089.38;5073646;28;19931;-75
2022/10/01 12:01:51;;;;;;;;;;;;;;;-144.99;69.64;52052.69;5072801;28;20019;-77
2022/10/01 12:04:27;;;;;;;;;;;;;;;-144.99;61.73;52203.50;5072401;28;19925;-76
2022/10/01 12:06:59;;;;;;;;;;;;;;;-144.99;62.67;52280.97;5073265;28;20035;-75
2022/10/01 12:09:28;;;;;;;;;;;;;;;-144.99;64.91;52270.78;5075525;28;20269;-75
2022/10/01 12:12:00;;;;;;;;;;;;;;;-144.99;66.82;52264.66;5073193;28;19925;-77
2022/10/01 12:14:30;;;;;;;;;;;;;;;-144.99;67.00;52077.16;5072746;28;20399;-75
2022/10/01 12:16:58;;;;;;;;;;;;;;;-144.99;65.62;52285.03;5080110;28;19915;-77
2022/10/01 12:19:27;;;;;;;;;;;;;;;-144.99;66.59;52258.53;5092463;28;19924;-76
2022/10/01 12:21:56;;;;;;;;;;;;;;;-144.99;68.31;52191.28;5089982;28;19931;-75
2022/10/01 12:24:27;;;;;;;;;;;;;;;-144.99;65.04;52170.91;5072075;28;20015;-75
2022/10/01 12:26:59;;;;;;;;;;;;;;;-144.99;60.00;52064.91;5072899;28;19928;-75
2022/10/01 12:29:31;;;;;;;;;;;;;;;-144.99;56.46;52056.78;5072177;28;20398;-74